sensor_id;sensor_type;location;lat;lon;timestamp;temperature;humidity
63771;DHT22;60282;43.862;18.430;2022-09-13T00:00:40;10.90;99.90
63771;DHT22;60282;43.862;18.430;2022-09-13T00:03:11;10.80;99.90
63771;DHT22;60282;43.862;18.430;2022-09-13T00:05:42;10.80;99.90
63771;DHT22;60282;43.862;18.430;2022-09-13T00:08:14;10.80;99.90
63771;DHT22;60282;43.862;18.430;2022-09-13T00:11:20;12.70;99.90
63771;DHT22;60282;43.862;18.430;2022-09-13T00:13:50;10.70;99.90
63771;DHT22;60282;43.862;18.430;2022-09-13T00:16:27;10.60;99.90
63771;DHT22;60282;43.862;18.430;2022-09-13T00:19:01;10.60;99.90
63771;DHT22;60282;43.862;18.430;2022-09-13T00:21:34;10.00;99.90
63771;DHT22;60282;43.862;18.430;2022-09-13T00:24:34;10.60;99.90
63771;DHT22;60282;43.862;18.430;2022-09-13T00:27:28;10.50;99.90
63771;DHT22;60282;43.862;18.430;2022-09-13T00:30:06;10.50;99.90
63771;DHT22;60282;43.862;18.430;2022-09-13T00:32:36;10.90;99.90
63771;DHT22;60282;43.862;18.430;2022-09-13T00:35:13;8.10;99.90
63771;DHT22;60282;43.862;18.430;2022-09-13T00:38:08;10.40;99.90
63771;DHT22;60282;43.862;18.430;2022-09-13T00:40:37;10.40;99.90
63771;DHT22;60282;43.862;18.430;2022-09-13T00:43:05;10.40;99.90
63771;DHT22;60282;43.862;18.430;2022-09-13T00:45:49;10.40;99.90
63771;DHT22;60282;43.862;18.430;2022-09-13T00:48:28;10.40;99.90
63771;DHT22;60282;43.862;18.430;2022-09-13T00:51:23;10.50;99.90
63771;DHT22;60282;43.862;18.430;2022-09-13T00:54:41;10.40;99.90
63771;DHT22;60282;43.862;18.430;2022-09-13T00:57:28;10.40;99.90
63771;DHT22;60282;43.862;18.430;2022-09-13T01:00:16;10.30;99.90
63771;DHT22;60282;43.862;18.430;2022-09-13T01:02:51;10.60;99.90
63771;DHT22;60282;43.862;18.430;2022-09-13T01:05:41;10.30;99.90
63771;DHT22;60282;43.862;18.430;2022-09-13T01:08:18;10.20;99.90
63771;DHT22;60282;43.862;18.430;2022-09-13T01:10:54;10.20;99.90
63771;DHT22;60282;43.862;18.430;2022-09-13T01:13:38;10.20;99.90
63771;DHT22;60282;43.862;18.430;2022-09-13T01:16:36;10.20;99.90
63771;DHT22;60282;43.862;18.430;2022-09-13T01:19:30;9.90;99.90
63771;DHT22;60282;43.862;18.430;2022-09-13T01:42:07;10.00;99.90
63771;DHT22;60282;43.862;18.430;2022-09-13T01:52:22;9.80;99.90
63771;DHT22;60282;43.862;18.430;2022-09-13T01:55:44;9.80;99.90
63771;DHT22;60282;43.862;18.430;2022-09-13T01:58:44;9.70;99.90
63771;DHT22;60282;43.862;18.430;2022-09-13T02:01:51;9.60;99.90
63771;DHT22;60282;43.862;18.430;2022-09-13T02:04:47;9.70;99.90
63771;DHT22;60282;43.862;18.430;2022-09-13T02:07:54;10.00;99.90
63771;DHT22;60282;43.862;18.430;2022-09-13T02:10:54;10.80;99.90
63771;DHT22;60282;43.862;18.430;2022-09-13T02:13:34;9.80;99.90
63771;DHT22;60282;43.862;18.430;2022-09-13T02:16:24;9.80;99.90
63771;DHT22;60282;43.862;18.430;2022-09-13T02:18:58;9.80;99.90
63771;DHT22;60282;43.862;18.430;2022-09-13T02:21:51;9.80;99.90
63771;DHT22;60282;43.862;18.430;2022-09-13T02:24:43;9.80;99.90
63771;DHT22;60282;43.862;18.430;2022-09-13T02:27:21;12.10;99.90
63771;DHT22;60282;43.862;18.430;2022-09-13T02:29:54;10.00;99.90
63771;DHT22;60282;43.862;18.430;2022-09-13T02:32:30;10.10;99.90
63771;DHT22;60282;43.862;18.430;2022-09-13T02:35:10;10.10;99.90
63771;DHT22;60282;43.862;18.430;2022-09-13T02:37:57;10.40;99.90
63771;DHT22;60282;43.862;18.430;2022-09-13T02:40:28;10.10;99.90
63771;DHT22;60282;43.862;18.430;2022-09-13T02:43:06;10.10;99.90
63771;DHT22;60282;43.862;18.430;2022-09-13T03:01:10;10.10;99.90
63771;DHT22;60282;43.862;18.430;2022-09-13T03:03:51;10.10;99.90
63771;DHT22;60282;43.862;18.430;2022-09-13T03:06:27;10.10;99.90
63771;DHT22;60282;43.862;18.430;2022-09-13T03:09:13;10.20;99.90
63771;DHT22;60282;43.862;18.430;2022-09-13T03:31:02;9.70;99.90
63771;DHT22;60282;43.862;18.430;2022-09-13T03:36:57;9.60;99.90
63771;DHT22;60282;43.862;18.430;2022-09-13T03:40:00;9.50;99.90
63771;DHT22;60282;43.862;18.430;2022-09-13T03:45:06;9.40;99.90
63771;DHT22;60282;43.862;18.430;2022-09-13T03:47:52;9.40;99.90
63771;DHT22;60282;43.862;18.430;2022-09-13T03:50:34;6.20;99.90
63771;DHT22;60282;43.862;18.430;2022-09-13T03:53:22;9.90;99.90
63771;DHT22;60282;43.862;18.430;2022-09-13T03:56:22;9.30;99.90
63771;DHT22;60282;43.862;18.430;2022-09-13T03:58:55;9.80;99.90
63771;DHT22;60282;43.862;18.430;2022-09-13T04:01:22;9.30;99.90
63771;DHT22;60282;43.862;18.430;2022-09-13T04:04:15;9.30;99.90
63771;DHT22;60282;43.862;18.430;2022-09-13T04:07:09;9.30;99.90
63771;DHT22;60282;43.862;18.430;2022-09-13T04:09:41;9.40;99.90
63771;DHT22;60282;43.862;18.430;2022-09-13T04:12:15;9.60;99.90
63771;DHT22;60282;43.862;18.430;2022-09-13T04:17:26;9.30;99.90
63771;DHT22;60282;43.862;18.430;2022-09-13T04:22:53;9.20;99.90
63771;DHT22;60282;43.862;18.430;2022-09-13T04:25:21;9.20;99.90
63771;DHT22;60282;43.862;18.430;2022-09-13T04:27:54;9.10;99.90
63771;DHT22;60282;43.862;18.430;2022-09-13T04:30:26;9.10;99.90
63771;DHT22;60282;43.862;18.430;2022-09-13T04:33:17;9.00;99.90
63771;DHT22;60282;43.862;18.430;2022-09-13T04:35:50;9.10;99.90
63771;DHT22;60282;43.862;18.430;2022-09-13T04:38:28;9.10;99.90
63771;DHT22;60282;43.862;18.430;2022-09-13T04:41:28;8.20;99.90
63771;DHT22;60282;43.862;18.430;2022-09-13T04:44:16;9.10;99.90
63771;DHT22;60282;43.862;18.430;2022-09-13T04:46:47;9.10;99.90
63771;DHT22;60282;43.862;18.430;2022-09-13T04:49:28;9.20;99.90
63771;DHT22;60282;43.862;18.430;2022-09-13T04:52:37;9.20;99.90
63771;DHT22;60282;43.862;18.430;2022-09-13T04:57:56;9.30;99.90
63771;DHT22;60282;43.862;18.430;2022-09-13T05:00:25;9.30;99.90
63771;DHT22;60282;43.862;18.430;2022-09-13T05:03:19;6.40;99.90
63771;DHT22;60282;43.862;18.430;2022-09-13T05:05:59;9.10;99.90
63771;DHT22;60282;43.862;18.430;2022-09-13T05:08:28;9.30;99.90
63771;DHT22;60282;43.862;18.430;2022-09-13T05:11:37;6.40;99.90
63771;DHT22;60282;43.862;18.430;2022-09-13T05:14:13;9.40;99.90
63771;DHT22;60282;43.862;18.430;2022-09-13T05:16:55;9.50;99.90
63771;DHT22;60282;43.862;18.430;2022-09-13T05:19:47;9.50;99.90
63771;DHT22;60282;43.862;18.430;2022-09-13T05:22:26;9.50;99.90
63771;DHT22;60282;43.862;18.430;2022-09-13T05:24:52;9.80;99.90
63771;DHT22;60282;43.862;18.430;2022-09-13T05:27:55;9.60;99.90
63771;DHT22;60282;43.862;18.430;2022-09-13T05:31:18;9.50;99.90
63771;DHT22;60282;43.862;18.430;2022-09-13T05:34:12;9.70;99.90
63771;DHT22;60282;43.862;18.430;2022-09-13T05:36:55;9.90;99.90
63771;DHT22;60282;43.862;18.430;2022-09-13T05:39:26;10.00;99.90
63771;DHT22;60282;43.862;18.430;2022-09-13T05:41:58;10.00;99.90
63771;DHT22;60282;43.862;18.430;2022-09-13T05:44:47;10.20;99.90
63771;DHT22;60282;43.862;18.430;2022-09-13T05:50:13;10.50;99.90
63771;DHT22;60282;43.862;18.430;2022-09-13T05:52:40;11.20;99.90
63771;DHT22;60282;43.862;18.430;2022-09-13T05:55:32;10.90;99.90
63771;DHT22;60282;43.862;18.430;2022-09-13T05:57:58;10.80;99.90
63771;DHT22;60282;43.862;18.430;2022-09-13T06:00:29;11.30;99.90
63771;DHT22;60282;43.862;18.430;2022-09-13T06:03:08;11.40;99.90
63771;DHT22;60282;43.862;18.430;2022-09-13T06:05:47;10.90;99.90
63771;DHT22;60282;43.862;18.430;2022-09-13T06:08:51;10.50;99.90
63771;DHT22;60282;43.862;18.430;2022-09-13T06:11:39;11.20;99.90
63771;DHT22;60282;43.862;18.430;2022-09-13T06:14:26;11.50;99.90
63771;DHT22;60282;43.862;18.430;2022-09-13T06:20:46;12.30;99.90
63771;DHT22;60282;43.862;18.430;2022-09-13T06:23:14;11.60;99.90
63771;DHT22;60282;43.862;18.430;2022-09-13T06:25:44;13.80;99.90
63771;DHT22;60282;43.862;18.430;2022-09-13T06:28:17;12.10;99.90
63771;DHT22;60282;43.862;18.430;2022-09-13T06:30:43;9.30;99.90
63771;DHT22;60282;43.862;18.430;2022-09-13T06:33:18;9.10;99.90
63771;DHT22;60282;43.862;18.430;2022-09-13T06:35:44;12.90;99.90
63771;DHT22;60282;43.862;18.430;2022-09-13T06:38:16;12.10;99.90
63771;DHT22;60282;43.862;18.430;2022-09-13T06:41:23;12.20;99.90
63771;DHT22;60282;43.862;18.430;2022-09-13T06:44:21;12.20;99.90
63771;DHT22;60282;43.862;18.430;2022-09-13T06:46:52;12.50;99.90
63771;DHT22;60282;43.862;18.430;2022-09-13T06:49:21;12.60;99.90
63771;DHT22;60282;43.862;18.430;2022-09-13T06:51:50;12.80;99.90
63771;DHT22;60282;43.862;18.430;2022-09-13T06:54:18;13.20;99.90
63771;DHT22;60282;43.862;18.430;2022-09-13T06:56:45;13.30;99.90
63771;DHT22;60282;43.862;18.430;2022-09-13T06:59:11;12.80;99.90
63771;DHT22;60282;43.862;18.430;2022-09-13T07:01:41;13.00;99.90
63771;DHT22;60282;43.862;18.430;2022-09-13T07:04:15;13.10;99.90
63771;DHT22;60282;43.862;18.430;2022-09-13T07:06:45;11.30;99.90
63771;DHT22;60282;43.862;18.430;2022-09-13T07:09:19;13.50;99.90
63771;DHT22;60282;43.862;18.430;2022-09-13T07:11:55;13.70;99.90
63771;DHT22;60282;43.862;18.430;2022-09-13T07:14:45;13.90;99.90
63771;DHT22;60282;43.862;18.430;2022-09-13T07:17:16;15.00;99.90
63771;DHT22;60282;43.862;18.430;2022-09-13T07:19:47;14.10;99.90
63771;DHT22;60282;43.862;18.430;2022-09-13T07:22:13;14.40;99.90
63771;DHT22;60282;43.862;18.430;2022-09-13T07:24:46;14.60;99.90
63771;DHT22;60282;43.862;18.430;2022-09-13T07:27:17;14.70;99.90
63771;DHT22;60282;43.862;18.430;2022-09-13T07:29:47;14.70;99.90
63771;DHT22;60282;43.862;18.430;2022-09-13T07:32:16;15.00;99.90
63771;DHT22;60282;43.862;18.430;2022-09-13T07:34:45;15.10;99.90
63771;DHT22;60282;43.862;18.430;2022-09-13T07:37:24;15.50;99.90
63771;DHT22;60282;43.862;18.430;2022-09-13T07:39:51;15.30;99.90
63771;DHT22;60282;43.862;18.430;2022-09-13T07:42:17;18.70;99.90
63771;DHT22;60282;43.862;18.430;2022-09-13T07:44:45;15.60;99.90
63771;DHT22;60282;43.862;18.430;2022-09-13T07:47:10;15.80;99.90
63771;DHT22;60282;43.862;18.430;2022-09-13T07:49:41;14.90;99.90
63771;DHT22;60282;43.862;18.430;2022-09-13T07:52:13;14.00;99.90
63771;DHT22;60282;43.862;18.430;2022-09-13T07:54:39;16.40;99.90
63771;DHT22;60282;43.862;18.430;2022-09-13T07:57:07;16.50;99.90
63771;DHT22;60282;43.862;18.430;2022-09-13T07:59:37;16.70;99.90
63771;DHT22;60282;43.862;18.430;2022-09-13T08:02:16;17.00;99.90
63771;DHT22;60282;43.862;18.430;2022-09-13T08:04:47;17.10;99.90
63771;DHT22;60282;43.862;18.430;2022-09-13T08:07:17;17.10;99.90
63771;DHT22;60282;43.862;18.430;2022-09-13T08:09:45;17.30;99.90
63771;DHT22;60282;43.862;18.430;2022-09-13T08:12:22;17.30;99.90
63771;DHT22;60282;43.862;18.430;2022-09-13T08:14:50;16.60;99.90
63771;DHT22;60282;43.862;18.430;2022-09-13T08:17:16;17.40;99.90
63771;DHT22;60282;43.862;18.430;2022-09-13T08:19:41;17.40;99.90
63771;DHT22;60282;43.862;18.430;2022-09-13T08:22:10;17.40;99.90
63771;DHT22;60282;43.862;18.430;2022-09-13T08:24:36;17.50;99.90
63771;DHT22;60282;43.862;18.430;2022-09-13T08:27:02;17.70;99.90
63771;DHT22;60282;43.862;18.430;2022-09-13T08:29:35;17.60;99.90
63771;DHT22;60282;43.862;18.430;2022-09-13T08:32:01;17.80;99.90
63771;DHT22;60282;43.862;18.430;2022-09-13T08:34:31;17.90;99.90
63771;DHT22;60282;43.862;18.430;2022-09-13T08:37:03;18.00;99.90
63771;DHT22;60282;43.862;18.430;2022-09-13T08:39:29;19.00;99.90
63771;DHT22;60282;43.862;18.430;2022-09-13T08:42:18;18.20;99.90
63771;DHT22;60282;43.862;18.430;2022-09-13T08:44:54;18.30;99.90
63771;DHT22;60282;43.862;18.430;2022-09-13T08:48:09;18.60;99.90
63771;DHT22;60282;43.862;18.430;2022-09-13T08:50:37;18.50;99.90
63771;DHT22;60282;43.862;18.430;2022-09-13T09:06:45;20.00;98.50
63771;DHT22;60282;43.862;18.430;2022-09-13T09:09:18;20.20;98.20
63771;DHT22;60282;43.862;18.430;2022-09-13T09:12:12;20.10;98.30
63771;DHT22;60282;43.862;18.430;2022-09-13T09:14:43;20.30;98.10
63771;DHT22;60282;43.862;18.430;2022-09-13T09:19:42;20.50;97.00
63771;DHT22;60282;43.862;18.430;2022-09-13T09:22:16;20.70;97.00
63771;DHT22;60282;43.862;18.430;2022-09-13T09:24:49;20.60;96.70
63771;DHT22;60282;43.862;18.430;2022-09-13T09:27:17;20.90;96.70
63771;DHT22;60282;43.862;18.430;2022-09-13T09:29:45;21.30;95.20
63771;DHT22;60282;43.862;18.430;2022-09-13T09:32:47;21.00;94.80
63771;DHT22;60282;43.862;18.430;2022-09-13T09:38:38;21.10;95.10
63771;DHT22;60282;43.862;18.430;2022-09-13T09:41:26;21.50;94.90
63771;DHT22;60282;43.862;18.430;2022-09-13T09:47:09;21.80;92.30
63771;DHT22;60282;43.862;18.430;2022-09-13T09:49:46;21.60;91.70
63771;DHT22;60282;43.862;18.430;2022-09-13T09:55:29;22.00;87.20
63771;DHT22;60282;43.862;18.430;2022-09-13T10:00:28;22.20;90.00
63771;DHT22;60282;43.862;18.430;2022-09-13T10:03:05;22.40;85.30
63771;DHT22;60282;43.862;18.430;2022-09-13T10:05:31;22.30;86.30
63771;DHT22;60282;43.862;18.430;2022-09-13T10:08:04;22.30;86.40
63771;DHT22;60282;43.862;18.430;2022-09-13T10:10:35;22.30;87.60
63771;DHT22;60282;43.862;18.430;2022-09-13T10:13:14;22.40;88.80
63771;DHT22;60282;43.862;18.430;2022-09-13T10:16:02;22.70;86.30
63771;DHT22;60282;43.862;18.430;2022-09-13T10:18:33;22.80;85.30
63771;DHT22;60282;43.862;18.430;2022-09-13T10:23:37;22.70;84.80
63771;DHT22;60282;43.862;18.430;2022-09-13T10:26:11;23.20;84.30
63771;DHT22;60282;43.862;18.430;2022-09-13T10:28:55;23.10;83.20
63771;DHT22;60282;43.862;18.430;2022-09-13T10:31:32;23.20;82.30
63771;DHT22;60282;43.862;18.430;2022-09-13T10:34:02;23.00;81.70
63771;DHT22;60282;43.862;18.430;2022-09-13T10:36:31;23.30;82.30
63771;DHT22;60282;43.862;18.430;2022-09-13T10:39:04;22.80;80.60
63771;DHT22;60282;43.862;18.430;2022-09-13T10:41:32;23.60;79.00
63771;DHT22;60282;43.862;18.430;2022-09-13T10:44:04;23.70;80.20
63771;DHT22;60282;43.862;18.430;2022-09-13T10:46:38;23.80;79.60
63771;DHT22;60282;43.862;18.430;2022-09-13T10:49:33;23.90;79.60
63771;DHT22;60282;43.862;18.430;2022-09-13T10:51:55;23.40;77.70
63771;DHT22;60282;43.862;18.430;2022-09-13T10:54:27;27.30;79.60
63771;DHT22;60282;43.862;18.430;2022-09-13T10:56:55;24.10;77.90
63771;DHT22;60282;43.862;18.430;2022-09-13T10:59:28;24.20;79.70
63771;DHT22;60282;43.862;18.430;2022-09-13T11:22:48;25.30;73.20
63771;DHT22;60282;43.862;18.430;2022-09-13T11:28:14;24.90;73.60
63771;DHT22;60282;43.862;18.430;2022-09-13T11:33:52;25.70;69.90
63771;DHT22;60282;43.862;18.430;2022-09-13T11:39:31;25.60;69.40
63771;DHT22;60282;43.862;18.430;2022-09-13T11:42:16;25.70;68.30
63771;DHT22;60282;43.862;18.430;2022-09-13T11:51:46;25.90;66.40
63771;DHT22;60282;43.862;18.430;2022-09-13T11:57:02;26.80;67.30
63771;DHT22;60282;43.862;18.430;2022-09-13T11:59:48;26.20;65.80
63771;DHT22;60282;43.862;18.430;2022-09-13T12:02:45;26.20;65.50
63771;DHT22;60282;43.862;18.430;2022-09-13T12:11:16;26.30;64.80
63771;DHT22;60282;43.862;18.430;2022-09-13T12:14:13;27.30;65.40
63771;DHT22;60282;43.862;18.430;2022-09-13T12:16:56;26.30;62.70
63771;DHT22;60282;43.862;18.430;2022-09-13T12:19:49;26.50;65.40
63771;DHT22;60282;43.862;18.430;2022-09-13T12:22:21;26.60;63.00
63771;DHT22;60282;43.862;18.430;2022-09-13T12:24:53;27.00;61.80
63771;DHT22;60282;43.862;18.430;2022-09-13T12:27:22;27.30;61.10
63771;DHT22;60282;43.862;18.430;2022-09-13T12:29:59;27.10;60.50
63771;DHT22;60282;43.862;18.430;2022-09-13T12:32:27;27.10;60.00
63771;DHT22;60282;43.862;18.430;2022-09-13T12:35:09;27.10;61.20
63771;DHT22;60282;43.862;18.430;2022-09-13T12:49:30;27.70;57.70
63771;DHT22;60282;43.862;18.430;2022-09-13T13:00:30;27.80;59.00
63771;DHT22;60282;43.862;18.430;2022-09-13T13:03:04;28.10;58.30
63771;DHT22;60282;43.862;18.430;2022-09-13T13:05:46;28.10;57.00
63771;DHT22;60282;43.862;18.430;2022-09-13T13:11:11;28.80;57.40
63771;DHT22;60282;43.862;18.430;2022-09-13T13:19:00;29.70;55.10
63771;DHT22;60282;43.862;18.430;2022-09-13T13:21:38;29.80;54.60
63771;DHT22;60282;43.862;18.430;2022-09-13T13:26:53;30.00;54.30
63771;DHT22;60282;43.862;18.430;2022-09-13T13:34:47;30.20;55.80
63771;DHT22;60282;43.862;18.430;2022-09-13T13:39:46;31.00;52.60
63771;DHT22;60282;43.862;18.430;2022-09-13T13:42:25;31.20;51.70
63771;DHT22;60282;43.862;18.430;2022-09-13T13:52:57;31.80;50.50
63771;DHT22;60282;43.862;18.430;2022-09-13T13:55:47;32.40;51.00
63771;DHT22;60282;43.862;18.430;2022-09-13T14:00:53;31.90;49.70
63771;DHT22;60282;43.862;18.430;2022-09-13T14:03:40;31.60;50.00
63771;DHT22;60282;43.862;18.430;2022-09-13T14:09:27;31.50;49.90
63771;DHT22;60282;43.862;18.430;2022-09-13T14:12:18;32.50;48.70
63771;DHT22;60282;43.862;18.430;2022-09-13T14:20:23;32.60;49.20
63771;DHT22;60282;43.862;18.430;2022-09-13T14:22:50;32.50;49.20
63771;DHT22;60282;43.862;18.430;2022-09-13T14:27:46;32.00;49.10
63771;DHT22;60282;43.862;18.430;2022-09-13T14:30:34;32.00;48.40
63771;DHT22;60282;43.862;18.430;2022-09-13T14:33:01;31.70;49.90
63771;DHT22;60282;43.862;18.430;2022-09-13T14:35:37;33.10;49.80
63771;DHT22;60282;43.862;18.430;2022-09-13T14:40:35;31.60;51.10
63771;DHT22;60282;43.862;18.430;2022-09-13T14:43:18;32.00;49.70
63771;DHT22;60282;43.862;18.430;2022-09-13T14:45:46;32.70;48.50
63771;DHT22;60282;43.862;18.430;2022-09-13T14:48:26;33.30;47.50
63771;DHT22;60282;43.862;18.430;2022-09-13T14:51:00;33.60;47.80
63771;DHT22;60282;43.862;18.430;2022-09-13T14:53:31;33.50;47.00
63771;DHT22;60282;43.862;18.430;2022-09-13T15:01:52;33.50;46.70
63771;DHT22;60282;43.862;18.430;2022-09-13T15:04:21;33.60;46.90
63771;DHT22;60282;43.862;18.430;2022-09-13T15:07:21;33.80;46.60
63771;DHT22;60282;43.862;18.430;2022-09-13T15:09:55;34.00;46.20
63771;DHT22;60282;43.862;18.430;2022-09-13T15:12:26;34.00;47.20
63771;DHT22;60282;43.862;18.430;2022-09-13T15:20:55;33.70;46.60
63771;DHT22;60282;43.862;18.430;2022-09-13T15:23:23;33.80;46.40
63771;DHT22;60282;43.862;18.430;2022-09-13T15:25:53;33.50;45.70
63771;DHT22;60282;43.862;18.430;2022-09-13T15:28:27;33.50;46.10
63771;DHT22;60282;43.862;18.430;2022-09-13T15:31:01;33.50;46.00
63771;DHT22;60282;43.862;18.430;2022-09-13T15:33:32;33.70;47.50
63771;DHT22;60282;43.862;18.430;2022-09-13T15:41:38;34.20;46.20
63771;DHT22;60282;43.862;18.430;2022-09-13T15:44:07;33.00;47.10
63771;DHT22;60282;43.862;18.430;2022-09-13T15:46:45;33.80;46.20
63771;DHT22;60282;43.862;18.430;2022-09-13T15:49:16;36.00;48.20
63771;DHT22;60282;43.862;18.430;2022-09-13T15:51:43;33.90;46.60
63771;DHT22;60282;43.862;18.430;2022-09-13T15:54:16;33.80;46.40
63771;DHT22;60282;43.862;18.430;2022-09-13T15:56:48;33.70;45.90
63771;DHT22;60282;43.862;18.430;2022-09-13T15:59:19;33.50;48.10
63771;DHT22;60282;43.862;18.430;2022-09-13T16:01:47;33.30;46.90
63771;DHT22;60282;43.862;18.430;2022-09-13T16:04:14;33.40;46.90
63771;DHT22;60282;43.862;18.430;2022-09-13T16:06:40;32.90;47.50
63771;DHT22;60282;43.862;18.430;2022-09-13T16:09:21;33.20;49.70
63771;DHT22;60282;43.862;18.430;2022-09-13T16:11:50;32.40;48.70
63771;DHT22;60282;43.862;18.430;2022-09-13T16:14:19;32.30;47.60
63771;DHT22;60282;43.862;18.430;2022-09-13T16:16:45;32.50;48.30
63771;DHT22;60282;43.862;18.430;2022-09-13T16:19:19;32.40;47.90
63771;DHT22;60282;43.862;18.430;2022-09-13T16:21:46;32.00;49.30
63771;DHT22;60282;43.862;18.430;2022-09-13T16:24:12;31.80;48.40
63771;DHT22;60282;43.862;18.430;2022-09-13T16:26:41;31.40;50.30
63771;DHT22;60282;43.862;18.430;2022-09-13T16:29:09;30.70;52.50
63771;DHT22;60282;43.862;18.430;2022-09-13T16:31:35;30.20;53.80
63771;DHT22;60282;43.862;18.430;2022-09-13T16:34:01;29.40;55.60
63771;DHT22;60282;43.862;18.430;2022-09-13T16:38:57;28.20;56.50
63771;DHT22;60282;43.862;18.430;2022-09-13T16:41:26;27.50;57.60
63771;DHT22;60282;43.862;18.430;2022-09-13T16:44:11;27.00;59.30
63771;DHT22;60282;43.862;18.430;2022-09-13T16:46:38;26.30;60.50
63771;DHT22;60282;43.862;18.430;2022-09-13T16:49:04;25.70;62.80
63771;DHT22;60282;43.862;18.430;2022-09-13T16:51:33;25.10;63.20
63771;DHT22;60282;43.862;18.430;2022-09-13T16:56:32;24.30;63.80
63771;DHT22;60282;43.862;18.430;2022-09-13T16:59:02;23.90;65.60
63771;DHT22;60282;43.862;18.430;2022-09-13T17:01:28;23.80;66.60
63771;DHT22;60282;43.862;18.430;2022-09-13T17:03:55;23.60;69.70
63771;DHT22;60282;43.862;18.430;2022-09-13T17:06:23;22.50;69.50
63771;DHT22;60282;43.862;18.430;2022-09-13T17:08:55;22.50;70.80
63771;DHT22;60282;43.862;18.430;2022-09-13T17:11:24;22.10;71.00
63771;DHT22;60282;43.862;18.430;2022-09-13T17:19:29;21.70;76.50
63771;DHT22;60282;43.862;18.430;2022-09-13T17:21:59;19.20;76.50
63771;DHT22;60282;43.862;18.430;2022-09-13T17:24:29;17.20;79.20
63771;DHT22;60282;43.862;18.430;2022-09-13T17:27:03;19.90;83.10
63771;DHT22;60282;43.862;18.430;2022-09-13T17:29:34;19.70;84.60
63771;DHT22;60282;43.862;18.430;2022-09-13T17:32:22;18.00;84.10
63771;DHT22;60282;43.862;18.430;2022-09-13T17:34:50;19.50;87.50
63771;DHT22;60282;43.862;18.430;2022-09-13T17:37:28;19.50;90.50
63771;DHT22;60282;43.862;18.430;2022-09-13T17:39:57;20.70;92.70
63771;DHT22;60282;43.862;18.430;2022-09-13T17:42:28;15.40;92.90
63771;DHT22;60282;43.862;18.430;2022-09-13T17:44:54;19.20;96.30
63771;DHT22;60282;43.862;18.430;2022-09-13T17:47:21;19.70;98.60
63771;DHT22;60282;43.862;18.430;2022-09-13T17:49:50;18.70;99.70
63771;DHT22;60282;43.862;18.430;2022-09-13T17:52:16;16.50;99.10
63771;DHT22;60282;43.862;18.430;2022-09-13T17:54:42;18.40;99.90
63771;DHT22;60282;43.862;18.430;2022-09-13T17:57:11;18.20;99.90
63771;DHT22;60282;43.862;18.430;2022-09-13T17:59:40;14.40;99.90
63771;DHT22;60282;43.862;18.430;2022-09-13T18:02:09;18.00;99.90
63771;DHT22;60282;43.862;18.430;2022-09-13T18:04:35;17.90;99.90
63771;DHT22;60282;43.862;18.430;2022-09-13T18:09:27;17.60;99.90
63771;DHT22;60282;43.862;18.430;2022-09-13T18:11:53;17.60;99.90
63771;DHT22;60282;43.862;18.430;2022-09-13T18:16:45;20.70;99.90
63771;DHT22;60282;43.862;18.430;2022-09-13T18:26:34;17.10;99.90
63771;DHT22;60282;43.862;18.430;2022-09-13T18:29:06;17.00;99.90
63771;DHT22;60282;43.862;18.430;2022-09-13T18:31:34;16.20;99.90
63771;DHT22;60282;43.862;18.430;2022-09-13T18:34:34;17.00;99.90
63771;DHT22;60282;43.862;18.430;2022-09-13T18:39:40;16.70;99.90
63771;DHT22;60282;43.862;18.430;2022-09-13T18:42:06;16.90;99.90
63771;DHT22;60282;43.862;18.430;2022-09-13T18:44:32;16.60;99.90
63771;DHT22;60282;43.862;18.430;2022-09-13T18:46:58;16.60;99.90
63771;DHT22;60282;43.862;18.430;2022-09-13T18:49:27;16.50;99.90
63771;DHT22;60282;43.862;18.430;2022-09-13T18:51:53;16.50;99.90
63771;DHT22;60282;43.862;18.430;2022-09-13T18:54:18;16.40;99.90
63771;DHT22;60282;43.862;18.430;2022-09-13T18:56:52;16.40;99.90
63771;DHT22;60282;43.862;18.430;2022-09-13T18:59:18;16.30;99.90
63771;DHT22;60282;43.862;18.430;2022-09-13T19:01:44;16.30;99.90
63771;DHT22;60282;43.862;18.430;2022-09-13T19:04:17;16.30;99.90
63771;DHT22;60282;43.862;18.430;2022-09-13T19:06:52;16.20;99.90
63771;DHT22;60282;43.862;18.430;2022-09-13T19:09:21;15.80;99.90
63771;DHT22;60282;43.862;18.430;2022-09-13T19:11:49;16.20;99.90
63771;DHT22;60282;43.862;18.430;2022-09-13T19:14:18;16.10;99.90
63771;DHT22;60282;43.862;18.430;2022-09-13T19:16:44;16.10;99.90
63771;DHT22;60282;43.862;18.430;2022-09-13T19:19:14;16.00;99.90
63771;DHT22;60282;43.862;18.430;2022-09-13T19:21:40;15.90;99.90
63771;DHT22;60282;43.862;18.430;2022-09-13T19:24:06;15.80;99.90
63771;DHT22;60282;43.862;18.430;2022-09-13T19:26:35;16.00;99.90
63771;DHT22;60282;43.862;18.430;2022-09-13T19:29:05;15.70;99.90
63771;DHT22;60282;43.862;18.430;2022-09-13T19:31:35;15.70;99.90
63771;DHT22;60282;43.862;18.430;2022-09-13T19:34:04;15.70;99.90
63771;DHT22;60282;43.862;18.430;2022-09-13T19:36:35;15.50;99.90
63771;DHT22;60282;43.862;18.430;2022-09-13T19:39:02;15.50;99.90
63771;DHT22;60282;43.862;18.430;2022-09-13T19:41:35;13.70;99.90
63771;DHT22;60282;43.862;18.430;2022-09-13T19:44:05;15.30;99.90
63771;DHT22;60282;43.862;18.430;2022-09-13T19:46:38;15.40;99.90
63771;DHT22;60282;43.862;18.430;2022-09-13T19:49:05;15.40;99.90
63771;DHT22;60282;43.862;18.430;2022-09-13T19:51:42;15.20;99.90
63771;DHT22;60282;43.862;18.430;2022-09-13T19:54:12;15.20;99.90
63771;DHT22;60282;43.862;18.430;2022-09-13T19:56:41;15.10;99.90
63771;DHT22;60282;43.862;18.430;2022-09-13T19:59:09;15.00;99.90
63771;DHT22;60282;43.862;18.430;2022-09-13T20:01:41;15.00;99.90
63771;DHT22;60282;43.862;18.430;2022-09-13T20:04:10;15.00;99.90
63771;DHT22;60282;43.862;18.430;2022-09-13T20:06:44;14.90;99.90
63771;DHT22;60282;43.862;18.430;2022-09-13T20:09:20;14.90;99.90
63771;DHT22;60282;43.862;18.430;2022-09-13T20:11:58;14.90;99.90
63771;DHT22;60282;43.862;18.430;2022-09-13T20:14:26;14.90;99.90
63771;DHT22;60282;43.862;18.430;2022-09-13T20:17:14;14.90;99.90
63771;DHT22;60282;43.862;18.430;2022-09-13T20:19:58;14.80;99.90
63771;DHT22;60282;43.862;18.430;2022-09-13T20:22:24;14.70;99.90
63771;DHT22;60282;43.862;18.430;2022-09-13T20:24:52;14.90;99.90
63771;DHT22;60282;43.862;18.430;2022-09-13T20:27:19;12.50;99.90
63771;DHT22;60282;43.862;18.430;2022-09-13T20:29:45;14.60;99.90
63771;DHT22;60282;43.862;18.430;2022-09-13T20:34:37;14.60;99.90
63771;DHT22;60282;43.862;18.430;2022-09-13T20:37:05;14.40;99.90